Time;durP1;ratioP1;P1;durP2;ratioP2;P2;SDS_P1;SDS_P2;PMS_P1;PMS_P2;Temp;Humidity;BMP_temperature;BMP_pressure;BME280_temperature;BME280_humidity;BME280_pressure;Samples;Min_cycle;Max_cycle;Signal;HPM_P1;HPM_P2
2022/10/20 04:00:10;;;;;;;5.90;4.10;;;5.20;96.30;;;;;;6119884;23;21468;31
2022/10/20 04:02:39;;;;;;;3.83;3.30;;;5.20;96.30;;;;;;4971936;28;20476;-81
2022/10/20 04:05:05;;;;;;;3.50;3.20;;;5.20;96.30;;;;;;5017240;28;20425;-81
2022/10/20 04:07:31;;;;;;;4.00;3.53;;;5.10;96.30;;;;;;4990818;28;20504;-80
2022/10/20 04:09:57;;;;;;;4.23;3.83;;;5.20;96.30;;;;;;4991343;28;20419;-81
2022/10/20 04:12:23;;;;;;;26.97;15.17;;;5.10;96.30;;;;;;5020834;28;20201;-80
2022/10/20 04:14:49;;;;;;;14.23;8.73;;;5.10;96.30;;;;;;5001943;28;20480;-79
2022/10/20 04:17:15;;;;;;;7.00;3.87;;;;;;;;;;4996051;28;20467;-79
2022/10/20 04:19:41;;;;;;;6.63;3.47;;;;;;;;;;5012064;28;20429;-79
2022/10/20 04:22:07;;;;;;;3.67;3.23;;;;;;;;;;5015508;28;20532;-80
2022/10/20 04:24:33;;;;;;;3.63;2.60;;;5.10;96.30;;;;;;4997381;28;20904;-79
2022/10/20 04:26:58;;;;;;;4.83;3.20;;;5.20;96.30;;;;;;4997383;28;20622;-81
2022/10/20 06:44:42;;;;;;;3.27;2.40;;;;;;;;;;6136005;23;20451;31
2022/10/20 06:47:09;;;;;;;6.00;2.37;;;;;;;;;;5001481;28;20543;-80
2022/10/20 06:49:34;;;;;;;6.43;3.27;;;8.30;96.30;;;;;;4982736;28;20596;-80
2022/10/20 06:52:00;;;;;;;2.17;1.70;;;;;;;;;;5001237;28;20440;-80
2022/10/20 06:54:26;;;;;;;3.27;2.53;;;;;;;;;;5018922;28;20169;-79
2022/10/20 06:56:52;;;;;;;2.83;1.83;;;;;;;;;;5018736;28;20283;-80
2022/10/20 06:59:18;;;;;;;3.23;1.53;;;;;;;;;;5001090;28;20424;-81
2022/10/20 07:01:44;;;;;;;2.60;1.90;;;;;;;;;;4993835;28;20440;-80
2022/10/20 07:04:14;;;;;;;2.50;1.10;;;7.80;96.30;;;;;;5000980;28;20275;-80
2022/10/20 07:06:42;;;;;;;2.00;1.20;;;7.90;96.30;;;;;;5038071;28;20168;-80
2022/10/20 07:09:12;;;;;;;2.80;1.63;;;7.90;96.30;;;;;;5039112;28;20454;-78
2022/10/20 07:14:14;;;;;;;2.30;1.73;;;;;;;;;;5521737;23;20715;-78
2022/10/20 07:16:40;;;;;;;4.80;2.10;;;8.00;96.30;;;;;;5014842;28;20458;-78
2022/10/20 07:19:06;;;;;;;1.73;1.00;;;8.10;96.30;;;;;;5032619;28;20403;-77
2022/10/20 07:21:32;;;;;;;2.30;1.37;;;8.10;96.30;;;;;;5015005;28;20430;-78
2022/10/20 07:24:00;;;;;;;1.17;1.07;;;8.20;96.30;;;;;;5032769;28;20290;-79
2022/10/20 07:26:28;;;;;;;2.03;1.10;;;8.20;96.30;;;;;;5032675;28;20438;-79
2022/10/20 07:28:56;;;;;;;2.43;1.10;;;8.20;96.30;;;;;;5014481;28;20484;-78
2022/10/20 07:31:24;;;;;;;3.73;1.40;;;8.20;96.30;;;;;;5014835;28;20442;-78
2022/10/20 07:33:50;;;;;;;3.33;1.53;;;;;;;;;;5032612;28;20457;-79
2022/10/20 07:36:19;;;;;;;2.17;1.50;;;8.40;96.30;;;;;;5032377;28;20820;-80
2022/10/20 07:38:45;;;;;;;1.80;1.40;;;8.40;96.30;;;;;;5032129;28;20435;-79
2022/10/20 07:41:11;;;;;;;1.87;1.20;;;8.50;96.30;;;;;;5032261;28;20508;-79
2022/10/20 07:43:38;;;;;;;3.00;2.20;;;8.50;96.30;;;;;;5014812;28;20447;-78
2022/10/20 07:46:04;;;;;;;1.73;1.40;;;8.60;96.30;;;;;;5032735;28;20175;-78
2022/10/20 07:48:30;;;;;;;1.70;1.60;;;8.60;96.30;;;;;;5014922;28;20414;-79
2022/10/20 07:51:13;;;;;;;3.23;1.80;;;8.70;96.30;;;;;;5015496;28;20474;-79
2022/10/20 07:53:38;;;;;;;4.33;1.50;;;;;;;;;;5033309;28;20435;-79
2022/10/20 07:56:04;;;;;;;1.77;1.50;;;8.90;96.30;;;;;;5014981;28;21036;-79
2022/10/20 07:58:30;;;;;;;4.80;2.03;;;9.00;96.30;;;;;;5032224;28;20199;-79
2022/10/20 08:00:55;;;;;;;1.90;1.50;;;9.00;96.30;;;;;;5016189;28;20218;-80
2022/10/20 08:03:21;;;;;;;1.97;1.60;;;9.00;96.30;;;;;;5032974;28;20255;-80
2022/10/20 08:05:46;;;;;;;1.57;1.20;;;9.00;96.30;;;;;;5032428;28;20840;-78
2022/10/20 08:08:12;;;;;;;2.50;1.87;;;9.00;96.30;;;;;;5025473;28;20177;-79
2022/10/20 08:10:37;;;;;;;2.53;1.80;;;9.10;96.30;;;;;;5025779;28;20250;-79
2022/10/20 08:13:03;;;;;;;6.43;1.83;;;9.30;96.30;;;;;;5015249;28;20191;-79
2022/10/20 08:15:28;;;;;;;3.13;1.60;;;9.40;96.30;;;;;;5014701;28;20214;-79
2022/10/20 08:17:54;;;;;;;3.80;1.83;;;9.40;96.30;;;;;;5014246;28;20295;-78
2022/10/20 08:20:19;;;;;;;2.53;1.47;;;9.40;96.30;;;;;;5016155;28;20686;-79
2022/10/20 08:22:45;;;;;;;1.83;1.30;;;9.40;96.30;;;;;;5036288;28;20173;-78
2022/10/20 08:25:13;;;;;;;2.23;1.40;;;9.50;96.30;;;;;;5036106;28;20734;-78
2022/10/20 08:27:39;;;;;;;1.70;1.50;;;;;;;;;;5036029;28;20176;-78
2022/10/20 08:30:05;;;;;;;2.77;1.20;;;9.60;96.30;;;;;;5018438;28;20418;-78
2022/10/20 08:32:31;;;;;;;3.30;1.30;;;9.80;96.30;;;;;;5018608;28;20302;-78
2022/10/20 08:34:57;;;;;;;1.93;1.40;;;9.70;96.30;;;;;;5018182;28;20403;-77
2022/10/20 08:37:22;;;;;;;2.70;1.30;;;9.70;96.30;;;;;;5035640;28;20239;-78
2022/10/20 08:39:48;;;;;;;1.47;1.27;;;;;;;;;;5018225;28;20185;-78
2022/10/20 08:42:14;;;;;;;1.70;1.17;;;9.80;96.30;;;;;;5035738;28;20199;-78
2022/10/20 08:44:43;;;;;;;1.73;1.47;;;10.00;96.30;;;;;;5035905;28;20172;-78
2022/10/20 08:47:26;;;;;;;2.50;1.23;;;9.90;96.30;;;;;;5035650;28;20263;-78
2022/10/20 08:49:52;;;;;;;3.03;1.67;;;9.90;96.30;;;;;;5017959;28;20419;-78
2022/10/20 08:52:22;;;;;;;2.70;1.40;;;10.20;96.30;;;;;;5018171;28;20457;-78
2022/10/20 08:54:51;;;;;;;4.87;1.60;;;10.20;96.30;;;;;;5017798;28;20423;-78
2022/10/20 08:57:32;;;;;;;2.03;1.83;;;10.40;96.30;;;;;;5035299;28;20549;-78
2022/10/20 09:00:06;;;;;;;2.53;1.57;;;10.60;96.30;;;;;;5017778;28;20853;-78
2022/10/20 09:02:33;;;;;;;4.00;1.30;;;10.70;96.30;;;;;;5035445;28;20972;-78
2022/10/20 09:04:59;;;;;;;4.80;1.57;;;11.20;96.30;;;;;;5035421;28;20403;-78
2022/10/20 09:07:35;;;;;;;5.30;1.60;;;11.60;96.30;;;;;;5035080;28;20450;-78
2022/10/20 09:10:25;;;;;;;4.40;1.40;;;11.90;96.30;;;;;;5017596;28;20880;-78
2022/10/20 09:12:51;;;;;;;2.07;1.40;;;12.80;96.30;;;;;;5035299;28;20411;-78
2022/10/20 09:15:18;;;;;;;5.80;1.77;;;13.30;96.30;;;;;;5017521;28;20446;-78
2022/10/20 09:17:49;;;;;;;1.53;1.10;;;13.80;96.30;;;;;;5034843;28;20466;-78
2022/10/20 09:20:21;;;;;;;3.67;1.50;;;13.70;96.30;;;;;;5022342;28;20420;-77
2022/10/20 09:22:47;;;;;;;6.93;2.07;;;13.60;96.30;;;;;;5015338;28;20495;-77
2022/10/20 09:25:17;;;;;;;1.20;1.07;;;12.90;96.30;;;;;;4997613;28;20519;-76
2022/10/20 09:27:44;;;;;;;4.60;1.67;;;13.50;96.30;;;;;;5014989;28;20900;-77
2022/10/20 09:30:22;;;;;;;1.37;1.27;;;13.50;96.30;;;;;;5015113;28;20427;-77
2022/10/20 09:32:49;;;;;;;2.93;1.37;;;13.60;96.30;;;;;;5014626;28;20419;-77
2022/10/20 09:35:28;;;;;;;3.77;1.53;;;12.90;96.30;;;;;;5014997;28;20785;-76
2022/10/20 09:38:21;;;;;;;2.80;1.30;;;12.60;96.30;;;;;;5015004;28;20949;-76
2022/10/20 09:40:58;;;;;;;1.87;1.20;;;12.30;96.30;;;;;;5015006;28;20432;-76
2022/10/20 09:43:25;;;;;;;1.57;1.07;;;11.80;96.30;;;;;;5014957;28;20832;-76
2022/10/20 09:45:54;;;;;;;2.53;1.17;;;12.10;96.30;;;;;;5014902;28;20422;-76
2022/10/20 09:48:46;;;;;;;1.73;1.57;;;12.40;96.30;;;;;;5014683;28;20458;-76
2022/10/20 09:51:15;;;;;;;4.00;1.30;;;12.30;96.30;;;;;;5014863;28;20770;-76
2022/10/20 09:53:52;;;;;;;4.13;1.30;;;12.40;96.30;;;;;;5014746;28;20404;-76
2022/10/20 09:56:36;;;;;;;1.53;1.03;;;12.10;96.30;;;;;;5014630;28;20466;-76
2022/10/20 09:59:08;;;;;;;2.53;1.47;;;12.10;96.30;;;;;;4996971;28;20787;-76
2022/10/20 10:01:50;;;;;;;2.93;1.50;;;12.20;96.30;;;;;;4996873;28;20801;-76
2022/10/20 10:04:29;;;;;;;2.63;1.27;;;12.50;96.30;;;;;;5014545;28;20412;-76
2022/10/20 10:06:55;;;;;;;2.60;1.40;;;;;;;;;;5014343;28;20396;-76
2022/10/20 10:09:29;;;;;;;4.00;1.53;;;12.80;96.30;;;;;;5014492;28;20466;-76
2022/10/20 10:12:11;;;;;;;1.90;1.50;;;12.60;96.30;;;;;;4996751;28;21026;-78
2022/10/20 10:14:52;;;;;;;4.30;1.80;;;12.70;96.30;;;;;;5014272;28;20428;-78
2022/10/20 10:17:35;;;;;;;1.40;1.00;;;13.00;96.30;;;;;;4996463;28;20466;-76
2022/10/20 10:20:05;;;;;;;1.77;1.20;;;12.70;96.30;;;;;;5014178;28;20946;-76
2022/10/20 10:22:31;;;;;;;3.53;1.23;;;12.70;96.30;;;;;;4999606;28;20440;-76
2022/10/20 10:24:59;;;;;;;1.83;1.33;;;12.90;96.30;;;;;;5023910;28;20428;-75
2022/10/20 10:27:31;;;;;;;1.50;1.10;;;12.90;96.30;;;;;;5025916;28;20412;-76
2022/10/20 10:30:15;;;;;;;4.20;1.20;;;12.80;96.30;;;;;;5025966;28;20841;-76
2022/10/20 10:32:46;;;;;;;5.57;1.47;;;13.30;96.30;;;;;;5009891;28;20560;-77
2022/10/20 10:35:20;;;;;;;3.93;1.43;;;13.50;96.30;;;;;;5025728;28;20420;-77
2022/10/20 10:37:46;;;;;;;3.20;1.37;;;13.50;96.30;;;;;;5024775;28;20502;-77
2022/10/20 10:40:17;;;;;;;2.00;1.10;;;13.50;96.30;;;;;;5025375;28;20430;-79
2022/10/20 10:43:02;;;;;;;1.87;1.30;;;13.30;96.30;;;;;;5006509;28;20459;-76
2022/10/20 10:45:51;;;;;;;4.87;1.63;;;13.10;96.30;;;;;;5024856;28;20471;-76
2022/10/20 10:48:41;;;;;;;1.43;1.07;;;12.80;96.30;;;;;;5024129;28;20439;-78
2022/10/20 10:51:07;;;;;;;1.57;1.37;;;;;;;;;;5024179;28;20494;-78
2022/10/20 10:53:58;;;;;;;5.70;2.20;;;12.60;96.30;;;;;;5022717;28;20412;-76
2022/10/20 10:56:44;;;;;;;3.57;2.20;;;12.40;96.30;;;;;;5007161;28;20222;-76
2022/10/20 10:59:27;;;;;;;4.20;2.07;;;12.50;96.30;;;;;;4997544;28;20424;-76
2022/10/20 11:02:01;;;;;;;9.70;1.30;;;12.40;96.30;;;;;;5013432;28;20475;-76
2022/10/20 11:04:34;;;;;;;2.10;1.67;;;12.50;96.30;;;;;;4995850;28;20443;-77
2022/10/20 11:07:18;;;;;;;3.00;1.30;;;12.40;96.30;;;;;;4995775;28;20418;-76
2022/10/20 11:10:12;;;;;;;5.17;1.40;;;12.80;96.30;;;;;;5013464;28;20408;-76
2022/10/20 11:12:40;;;;;;;2.20;1.57;;;12.80;96.30;;;;;;4995668;28;20419;-77
2022/10/20 11:15:24;;;;;;;2.40;1.40;;;13.00;96.30;;;;;;5013203;28;20428;-76
2022/10/20 11:18:27;;;;;;;2.10;1.10;;;12.90;96.30;;;;;;5013096;28;20487;-76
2022/10/20 11:21:26;;;;;;;4.00;2.43;;;12.80;96.30;;;;;;5013143;28;20420;-76
2022/10/20 11:24:24;;;;;;;2.40;1.70;;;12.80;96.30;;;;;;5013182;28;20483;-77
2022/10/20 11:27:12;;;;;;;7.23;2.00;;;12.90;96.10;;;;;;5012854;28;20396;-76
2022/10/20 11:29:40;;;;;;;2.73;1.53;;;12.80;95.60;;;;;;5012539;28;20854;-75
2022/10/20 11:32:25;;;;;;;3.00;1.50;;;12.70;96.30;;;;;;5012860;28;20436;-76
2022/10/20 11:34:54;;;;;;;4.30;1.60;;;;;;;;;;5012897;28;20403;-76
2022/10/20 11:37:27;;;;;;;2.20;1.00;;;12.80;96.30;;;;;;5012554;28;20459;-76
2022/10/20 11:40:04;;;;;;;1.57;1.10;;;;;;;;;;5012981;28;20884;-77
2022/10/20 11:42:30;;;;;;;5.50;1.80;;;;;;;;;;5012710;28;20419;-76
2022/10/20 11:44:56;;;;;;;1.93;1.30;;;;;;;;;;4995135;28;20416;-76
2022/10/20 11:47:39;;;;;;;2.20;1.30;;;13.00;96.30;;;;;;5012515;28;20185;-76
2022/10/20 11:50:08;;;;;;;3.20;1.30;;;13.10;96.30;;;;;;5012807;28;20412;-78
2022/10/20 11:53:02;;;;;;;2.73;1.30;;;13.20;96.30;;;;;;5012884;28;20436;-76
2022/10/20 11:56:04;;;;;;;4.20;2.27;;;13.40;96.30;;;;;;5012497;28;20388;-75
2022/10/20 11:58:52;;;;;;;6.27;1.73;;;13.30;96.20;;;;;;5012348;28;20502;-76
2022/10/20 12:01:42;;;;;;;1.70;1.43;;;13.30;96.20;;;;;;5012440;28;20442;-76
2022/10/20 12:04:25;;;;;;;2.80;0.90;;;13.30;94.90;;;;;;5012611;28;20403;-76
2022/10/20 12:07:14;;;;;;;3.67;2.30;;;13.30;95.10;;;;;;5012294;28;20388;-76
2022/10/20 12:09:58;;;;;;;1.77;1.63;;;13.00;94.10;;;;;;4994918;28;20482;-76
2022/10/20 12:12:46;;;;;;;1.80;1.30;;;13.20;95.30;;;;;;5012339;28;20905;-76
2022/10/20 12:15:23;;;;;;;2.07;1.40;;;13.50;93.80;;;;;;5012272;28;20426;-76
2022/10/20 12:17:51;;;;;;;1.83;1.20;;;13.30;94.20;;;;;;4994465;28;20828;-76
2022/10/20 12:20:19;;;;;;;2.30;1.60;;;;;;;;;;5012313;28;20440;-76
2022/10/20 12:22:51;;;;;;;3.93;1.70;;;13.50;92.90;;;;;;5012291;28;20502;-76
2022/10/20 12:25:25;;;;;;;2.93;1.50;;;13.20;93.00;;;;;;5012305;28;20441;-76
2022/10/20 12:28:10;;;;;;;1.33;1.23;;;;;;;;;;5012139;28;20549;-76
2022/10/20 12:30:38;;;;;;;4.40;1.57;;;13.60;91.60;;;;;;5011969;28;20439;-76
2022/10/20 12:33:18;;;;;;;2.60;1.10;;;;;;;;;;5012218;28;20408;-76
2022/10/20 12:36:15;;;;;;;3.67;1.40;;;13.60;91.60;;;;;;5012242;28;21094;-76
2022/10/20 12:38:42;;;;;;;1.93;1.37;;;;;;;;;;5012073;28;20392;-76
2022/10/20 12:41:10;;;;;;;1.60;1.30;;;13.90;90.60;;;;;;4994490;28;20439;-76
2022/10/20 12:43:50;;;;;;;5.63;1.40;;;;;;;;;;5012232;28;20769;-79
2022/10/20 12:46:25;;;;;;;2.90;1.50;;;13.90;91.50;;;;;;5012068;28;20406;-75
2022/10/20 12:48:57;;;;;;;1.97;1.30;;;13.70;91.30;;;;;;5011943;28;20828;-76
2022/10/20 12:51:37;;;;;;;1.87;1.30;;;13.80;91.60;;;;;;5012043;28;20428;-77
2022/10/20 12:54:21;;;;;;;1.90;1.60;;;13.70;90.90;;;;;;4994710;28;20776;-77
2022/10/20 12:56:47;;;;;;;2.70;1.27;;;13.90;91.40;;;;;;5011826;28;20447;-76
2022/10/20 12:59:28;;;;;;;3.80;1.43;;;13.40;90.70;;;;;;5011903;28;20900;-77
2022/10/20 13:02:09;;;;;;;9.23;1.60;;;;;;;;;;5011884;28;20908;-76
2022/10/20 13:05:05;;;;;;;2.07;1.10;;;12.70;94.00;;;;;;5011936;28;20408;-75
2022/10/20 13:07:58;;;;;;;2.10;1.50;;;12.70;93.90;;;;;;5018563;28;20503;-76
2022/10/20 13:10:30;;;;;;;1.77;1.63;;;;;;;;;;5004930;28;20404;-78
2022/10/20 13:13:01;;;;;;;2.00;1.50;;;13.20;93.00;;;;;;4997834;28;20403;-79
2022/10/20 13:15:30;;;;;;;3.13;1.80;;;;;;;;;;5015247;28;20795;-78
2022/10/20 13:18:05;;;;;;;4.97;1.63;;;13.10;92.00;;;;;;5015022;28;20541;-79
2022/10/20 13:20:37;;;;;;;4.03;1.90;;;13.10;93.40;;;;;;5015209;28;20768;-78
2022/10/20 13:23:03;;;;;;;2.50;1.50;;;13.20;93.70;;;;;;5015720;28;20412;-78
2022/10/20 13:25:45;;;;;;;5.23;2.30;;;13.10;94.10;;;;;;5015595;28;20807;-78
2022/10/20 13:28:11;;;;;;;2.10;1.57;;;;;;;;;;5020273;28;20751;-79
2022/10/20 13:30:42;;;;;;;4.63;2.20;;;;;;;;;;5023143;28;20439;-80
2022/10/20 13:33:19;;;;;;;3.10;2.13;;;;;;;;;;5004936;28;20187;-79
2022/10/20 13:35:49;;;;;;;2.70;2.10;;;13.50;95.10;;;;;;5035759;28;20407;-78
2022/10/20 13:38:33;;;;;;;3.87;2.47;;;13.40;95.00;;;;;;5036128;28;20482;-80
2022/10/20 13:41:02;;;;;;;2.90;1.90;;;;;;;;;;5019142;28;20500;-81
2022/10/20 13:43:50;;;;;;;3.60;2.13;;;13.10;96.30;;;;;;5018597;28;20926;-81
2022/10/20 13:46:37;;;;;;;5.37;2.80;;;13.00;96.30;;;;;;5018347;28;20441;-80
2022/10/20 13:49:22;;;;;;;5.53;2.50;;;13.20;96.30;;;;;;5034987;28;20413;-82
2022/10/20 13:51:52;;;;;;;4.47;2.80;;;13.30;96.30;;;;;;5015290;28;20458;-79
2022/10/20 13:54:31;;;;;;;4.00;3.00;;;13.20;96.30;;;;;;5026415;28;20412;-80
2022/10/20 13:56:57;;;;;;;4.70;2.90;;;13.00;96.30;;;;;;4997458;28;20493;-81
2022/10/20 13:59:27;;;;;;;4.63;3.40;;;13.00;96.30;;;;;;5032541;28;20768;-81
2022/10/20 14:02:19;;;;;;;5.27;3.03;;;12.90;96.30;;;;;;5013239;28;20438;-81
2022/10/20 14:04:45;;;;;;;10.13;3.13;;;;;;;;;;5013810;28;20427;-82
2022/10/20 14:07:14;;;;;;;9.43;3.13;;;12.70;96.30;;;;;;5002259;28;20793;-79
2022/10/20 14:09:40;;;;;;;7.80;2.97;;;12.80;96.30;;;;;;4996812;28;20185;-79
2022/10/20 14:12:22;;;;;;;5.43;3.53;;;12.70;96.30;;;;;;5002686;28;20510;-79
2022/10/20 14:14:48;;;;;;;6.50;3.77;;;;;;;;;;5031056;28;20461;-78
2022/10/20 14:17:23;;;;;;;5.97;3.73;;;12.60;96.30;;;;;;5034310;28;20462;-77
2022/10/20 14:19:49;;;;;;;8.10;5.07;;;12.60;96.30;;;;;;5017967;28;20510;-77
2022/10/20 14:22:17;;;;;;;10.43;5.23;;;12.50;96.30;;;;;;5013984;28;20938;-77
2022/10/20 14:24:46;;;;;;;6.43;4.40;;;12.40;96.30;;;;;;5013934;28;20177;-78
2022/10/20 14:27:22;;;;;;;7.33;4.70;;;;;;;;;;5032636;28;20469;-76
2022/10/20 14:29:48;;;;;;;7.70;4.77;;;;;;;;;;5017991;28;20403;-77
2022/10/20 14:32:22;;;;;;;9.93;4.33;;;;;;;;;;5003949;28;20450;-78
2022/10/20 14:34:54;;;;;;;5.20;3.70;;;;;;;;;;5021967;28;20452;-77
2022/10/20 14:37:33;;;;;;;6.83;5.43;;;11.30;96.30;;;;;;5014595;28;20526;-76
2022/10/20 14:40:06;;;;;;;6.70;5.13;;;11.20;96.30;;;;;;5033610;28;20407;-77
2022/10/20 14:42:33;;;;;;;10.30;5.10;;;;;;;;;;5023726;28;20431;-77
2022/10/20 14:45:00;;;;;;;8.70;5.93;;;11.00;96.30;;;;;;5013770;28;20885;-79
2022/10/20 14:47:37;;;;;;;11.27;5.47;;;;;;;;;;5013203;28;20973;-77
2022/10/20 14:50:03;;;;;;;8.47;5.47;;;10.70;96.30;;;;;;4997251;28;20510;-77
2022/10/20 14:52:34;;;;;;;6.67;5.87;;;10.60;96.30;;;;;;5015325;28;20453;-76
2022/10/20 14:54:59;;;;;;;8.07;4.97;;;10.50;96.30;;;;;;5033158;28;20391;-77
2022/10/20 14:57:35;;;;;;;10.93;6.10;;;10.30;96.30;;;;;;5032402;28;20451;-79
2022/10/20 15:00:21;;;;;;;8.10;5.10;;;10.00;96.30;;;;;;5033278;28;20164;-76
2022/10/20 15:02:55;;;;;;;10.33;6.07;;;;;;;;;;5032945;28;20431;-77
2022/10/20 15:05:43;;;;;;;9.10;6.30;;;9.80;96.30;;;;;;5033177;28;20395;-76
2022/10/20 15:08:16;;;;;;;9.70;6.40;;;9.70;96.30;;;;;;5005000;28;20431;-76
2022/10/20 15:10:41;;;;;;;7.53;6.40;;;9.60;96.30;;;;;;5013163;28;20436;-78
2022/10/20 15:13:20;;;;;;;9.47;6.40;;;9.50;96.30;;;;;;5013244;28;20419;-76
2022/10/20 15:15:45;;;;;;;10.93;6.97;;;9.50;96.30;;;;;;4995727;28;20267;-78
2022/10/20 15:18:17;;;;;;;9.30;6.67;;;9.40;96.30;;;;;;5012667;28;20598;-76
2022/10/20 15:20:45;;;;;;;9.77;6.20;;;9.30;96.30;;;;;;4995424;28;20237;-76
2022/10/20 15:23:18;;;;;;;8.80;7.17;;;9.30;96.30;;;;;;5013068;28;20431;-76
2022/10/20 15:25:59;;;;;;;11.10;7.13;;;;;;;;;;5012979;28;20412;-76
2022/10/20 15:28:44;;;;;;;8.93;6.20;;;9.10;96.30;;;;;;5012457;28;20408;-77
2022/10/20 15:31:12;;;;;;;12.27;7.37;;;8.90;96.30;;;;;;4995165;28;20424;-76
2022/10/20 15:33:39;;;;;;;12.10;7.53;;;8.80;96.30;;;;;;5012871;28;20412;-76
2022/10/20 15:36:20;;;;;;;10.63;6.20;;;8.70;96.30;;;;;;4995077;28;20831;-76
2022/10/20 15:38:46;;;;;;;10.33;8.07;;;;;;;;;;4995090;28;20792;-76
2022/10/20 15:41:17;;;;;;;15.30;10.03;;;8.70;96.30;;;;;;5012668;28;20427;-76
2022/10/20 15:43:43;;;;;;;12.00;7.33;;;8.60;96.30;;;;;;5012690;28;20411;-76
2022/10/20 15:46:10;;;;;;;9.80;7.70;;;8.60;96.30;;;;;;5012608;28;20416;-78
2022/10/20 15:48:36;;;;;;;16.93;10.53;;;8.50;96.30;;;;;;5011964;28;20188;-76
2022/10/20 15:51:02;;;;;;;13.13;8.97;;;8.50;96.30;;;;;;5012438;28;20452;-80
2022/10/20 15:53:28;;;;;;;13.80;8.20;;;;;;;;;;4998257;28;20169;-79
2022/10/20 15:55:54;;;;;;;15.70;9.00;;;;;;;;;;4999397;28;20494;-79
2022/10/20 15:58:20;;;;;;;11.50;7.43;;;8.40;96.30;;;;;;5015842;28;20255;-79
2022/10/20 16:00:46;;;;;;;12.90;7.73;;;;;;;;;;4994280;28;20448;-80
2022/10/20 16:03:17;;;;;;;9.87;8.13;;;8.30;96.30;;;;;;5021945;28;20180;-79
2022/10/20 16:05:42;;;;;;;9.87;7.10;;;8.30;96.30;;;;;;5021926;28;20395;-78
2022/10/20 16:08:08;;;;;;;18.53;9.73;;;8.30;96.30;;;;;;4999074;28;20473;-81
2022/10/20 16:10:34;;;;;;;12.33;8.60;;;;;;;;;;5002028;28;20735;-79
2022/10/20 16:13:00;;;;;;;15.17;7.90;;;;;;;;;;5016059;28;20268;-78
2022/10/20 16:15:26;;;;;;;9.97;6.93;;;;;;;;;;5004286;28;20439;-76
2022/10/20 16:17:51;;;;;;;10.40;8.33;;;8.20;96.30;;;;;;5015932;28;20291;-76
2022/10/20 16:20:17;;;;;;;13.37;8.00;;;8.20;96.30;;;;;;4993914;28;20461;-76
2022/10/20 16:22:43;;;;;;;10.00;7.60;;;;;;;;;;4993987;28;20183;-76
2022/10/20 16:25:09;;;;;;;10.10;6.40;;;8.20;96.30;;;;;;5039134;28;20233;-76
2022/10/20 16:27:35;;;;;;;10.87;8.17;;;8.10;96.30;;;;;;5050858;28;20796;-76
2022/10/20 16:30:02;;;;;;;11.87;8.80;;;8.10;96.30;;;;;;5051038;28;20442;-75
2022/10/20 16:32:27;;;;;;;11.47;8.90;;;8.00;96.30;;;;;;5014929;28;20196;-76
2022/10/20 16:34:54;;;;;;;14.20;8.30;;;8.10;96.30;;;;;;5030560;28;20541;-76
2022/10/20 16:37:20;;;;;;;10.27;7.37;;;8.10;96.30;;;;;;5027856;28;20208;-78
2022/10/20 16:39:45;;;;;;;10.90;7.60;;;8.20;96.30;;;;;;5011595;28;20408;-78
2022/10/20 16:42:11;;;;;;;15.60;7.80;;;8.20;96.30;;;;;;4995973;28;20204;-79
2022/10/20 16:44:37;;;;;;;9.73;7.33;;;;;;;;;;4997866;28;20173;-77
2022/10/20 16:47:03;;;;;;;10.47;7.50;;;;;;;;;;5016020;28;20196;-79
2022/10/20 16:49:28;;;;;;;8.43;7.63;;;8.40;96.30;;;;;;5016156;28;20192;-78
2022/10/20 16:51:54;;;;;;;6.00;5.40;;;8.30;96.30;;;;;;5017592;28;20426;-78
2022/10/20 16:54:19;;;;;;;9.13;7.60;;;8.40;96.30;;;;;;5035650;28;20180;-78
2022/10/20 16:56:45;;;;;;;27.87;18.30;;;8.40;96.30;;;;;;5017414;28;20239;-79
2022/10/20 16:59:11;;;;;;;36.67;23.47;;;;;;;;;;5017860;28;20180;-78
2022/10/20 17:01:36;;;;;;;11.43;8.70;;;8.30;96.30;;;;;;5017335;28;20202;-78
2022/10/20 17:04:02;;;;;;;9.47;7.73;;;8.30;96.30;;;;;;5035564;28;20391;-78
2022/10/20 17:06:28;;;;;;;13.00;9.73;;;8.40;96.30;;;;;;5017868;28;20184;-80
2022/10/20 17:08:56;;;;;;;8.53;7.07;;;8.40;96.30;;;;;;5035845;28;20176;-80
2022/10/20 17:11:27;;;;;;;9.83;7.30;;;8.40;96.30;;;;;;5036574;28;20200;-81
2022/10/20 17:13:54;;;;;;;6.70;5.30;;;;;;;;;;5035414;28;20431;-79
2022/10/20 17:16:23;;;;;;;8.67;7.83;;;8.50;96.30;;;;;;5017922;28;20422;-79
2022/10/20 17:18:48;;;;;;;10.93;8.60;;;8.50;96.30;;;;;;5000535;28;20444;-80
2022/10/20 17:21:14;;;;;;;11.27;7.83;;;8.50;96.30;;;;;;5027382;28;20896;-80
2022/10/20 17:23:42;;;;;;;12.83;9.10;;;8.50;96.30;;;;;;5017010;28;20185;-81
2022/10/20 17:26:11;;;;;;;8.03;7.20;;;8.40;96.30;;;;;;5035604;28;20887;-79
2022/10/20 17:28:37;;;;;;;8.13;6.57;;;8.40;96.30;;;;;;5035375;28;20419;-79
2022/10/20 17:31:06;;;;;;;11.80;6.90;;;;;;;;;;5018637;28;20909;-80
2022/10/20 17:33:33;;;;;;;9.47;8.27;;;8.40;96.30;;;;;;5037085;28;20626;-79
2022/10/20 17:36:00;;;;;;;11.97;8.50;;;8.40;96.30;;;;;;5037127;28;20561;-80
2022/10/20 17:38:26;;;;;;;9.83;7.37;;;;;;;;;;5034327;28;20474;-79
2022/10/20 17:40:53;;;;;;;12.50;6.10;;;8.50;96.30;;;;;;5035759;28;20524;-79
2022/10/20 17:43:19;;;;;;;10.97;7.43;;;8.50;96.30;;;;;;5022733;28;20415;-79
2022/10/20 17:45:59;;;;;;;18.10;8.97;;;8.40;96.30;;;;;;5008968;28;20434;-80
2022/10/20 17:48:25;;;;;;;9.43;7.20;;;8.40;96.30;;;;;;4998614;28;20652;-80
2022/10/20 17:51:01;;;;;;;11.27;7.67;;;8.50;96.30;;;;;;4997898;28;20435;-79
2022/10/20 17:53:30;;;;;;;14.50;8.23;;;8.50;96.30;;;;;;4997745;28;20580;-80
2022/10/20 17:55:59;;;;;;;6.03;4.90;;;;;;;;;;5030685;28;20510;-79
2022/10/20 17:58:26;;;;;;;8.13;5.87;;;;;;;;;;5033549;28;21001;-80
2022/10/20 18:00:51;;;;;;;11.10;8.30;;;8.60;96.30;;;;;;5016581;28;20423;-79
2022/10/20 18:03:17;;;;;;;7.93;6.70;;;8.50;96.30;;;;;;5016435;28;20473;-77
2022/10/20 18:05:43;;;;;;;9.43;7.27;;;;;;;;;;5015750;28;20646;-77
2022/10/20 18:08:08;;;;;;;9.90;7.90;;;8.50;96.30;;;;;;5016937;28;20659;-78
2022/10/20 18:10:34;;;;;;;19.17;9.00;;;8.60;96.30;;;;;;5002884;28;20534;-81
2022/10/20 18:12:59;;;;;;;8.30;7.37;;;8.60;96.30;;;;;;4996442;28;20180;-79
2022/10/20 18:15:25;;;;;;;9.13;7.50;;;;;;;;;;5013830;28;20204;-78
2022/10/20 18:17:51;;;;;;;13.50;7.40;;;8.60;96.30;;;;;;5011470;28;20715;-79
2022/10/20 18:20:16;;;;;;;14.40;7.60;;;8.60;96.30;;;;;;5013315;28;20423;-79
2022/10/20 18:22:44;;;;;;;9.93;6.87;;;;;;;;;;4993740;28;20184;-80
2022/10/20 18:25:09;;;;;;;10.00;7.17;;;8.50;96.30;;;;;;5013276;28;20177;-78
2022/10/20 18:27:35;;;;;;;11.53;6.90;;;8.50;96.30;;;;;;5012813;28;20435;-80
2022/10/20 18:30:00;;;;;;;13.57;8.73;;;8.60;96.30;;;;;;4995871;28;20181;-80
2022/10/20 18:32:26;;;;;;;12.60;8.97;;;8.50;96.30;;;;;;5013227;28;20280;-80
2022/10/20 18:34:51;;;;;;;11.50;7.87;;;8.50;96.30;;;;;;4995886;28;20188;-78
2022/10/20 18:37:18;;;;;;;12.27;8.90;;;8.50;96.30;;;;;;5012692;28;20197;-79
2022/10/20 18:39:47;;;;;;;10.50;7.73;;;8.50;96.30;;;;;;4995542;28;20177;-79
2022/10/20 18:42:12;;;;;;;9.53;7.17;;;8.50;96.30;;;;;;4995694;28;20439;-79
2022/10/20 18:44:38;;;;;;;7.90;5.63;;;8.60;96.30;;;;;;5012977;28;20922;-78
2022/10/20 18:47:03;;;;;;;12.07;7.80;;;8.50;96.30;;;;;;5012600;28;20692;-80
2022/10/20 18:49:29;;;;;;;11.67;7.10;;;8.50;96.30;;;;;;4995500;28;20645;-80
2022/10/20 18:51:54;;;;;;;7.27;4.97;;;8.60;96.30;;;;;;4995782;28;20211;-79
2022/10/20 18:54:22;;;;;;;5.77;4.90;;;8.70;96.30;;;;;;4995582;28;20184;-79
2022/10/20 18:56:47;;;;;;;7.23;5.23;;;8.70;96.30;;;;;;4994781;28;20605;-79
2022/10/20 18:59:15;;;;;;;9.63;5.40;;;8.70;96.30;;;;;;5012584;28;20446;-78
2022/10/20 19:01:40;;;;;;;8.60;3.67;;;8.70;96.30;;;;;;4995129;28;20672;-78
2022/10/20 19:04:08;;;;;;;6.07;4.17;;;8.80;96.30;;;;;;4994697;28;20466;-80
2022/10/20 19:06:36;;;;;;;8.50;6.30;;;;;;;;;;4996270;28;20212;-80
2022/10/20 19:09:05;;;;;;;12.70;5.57;;;8.80;96.30;;;;;;5015251;28;20443;-79
2022/10/20 19:11:33;;;;;;;8.80;5.80;;;8.70;96.30;;;;;;5012674;28;20509;-80
2022/10/20 19:13:59;;;;;;;11.40;4.70;;;8.80;96.30;;;;;;4998834;28;20928;-79
2022/10/20 19:16:28;;;;;;;19.30;7.70;;;8.80;96.30;;;;;;4997516;28;20489;-79
2022/10/20 19:18:56;;;;;;;11.67;6.57;;;8.80;96.30;;;;;;4996616;28;20468;-79
2022/10/20 19:21:23;;;;;;;6.87;5.30;;;8.80;96.30;;;;;;4996976;28;20482;-79
2022/10/20 19:23:57;;;;;;;9.47;5.93;;;8.90;96.30;;;;;;4996083;28;20420;-79
2022/10/20 19:26:26;;;;;;;6.60;4.83;;;8.90;96.30;;;;;;4996747;28;20411;-79
2022/10/20 19:29:10;;;;;;;15.20;6.90;;;8.90;96.30;;;;;;4996505;28;20768;-80
2022/10/20 19:31:40;;;;;;;10.63;6.53;;;;;;;;;;5015825;28;20851;-79
2022/10/20 19:34:08;;;;;;;14.23;9.23;;;;;;;;;;5014848;28;20407;-80
2022/10/20 19:36:34;;;;;;;12.33;6.20;;;8.90;96.30;;;;;;5014936;28;20462;-79
2022/10/20 19:39:00;;;;;;;7.17;5.13;;;8.90;96.30;;;;;;5014380;28;20469;-79
2022/10/20 19:41:26;;;;;;;5.93;4.97;;;8.90;96.30;;;;;;4997208;28;20816;-79
2022/10/20 19:43:52;;;;;;;6.93;4.70;;;8.90;96.30;;;;;;4996263;28;20947;-79
2022/10/20 19:46:19;;;;;;;8.00;4.70;;;8.90;96.30;;;;;;4995255;28;20943;-80
2022/10/20 19:48:46;;;;;;;10.03;6.00;;;8.90;96.30;;;;;;5013175;28;20435;-80